sensor_id;sensor_type;location;lat;lon;timestamp;pressure;altitude;pressure_sealevel;temperature;humidity
58239;BME280;44037;55.638;37.356;2023-11-21T00:00:17;98495.16;;;-10.38;71.25
58239;BME280;44037;55.638;37.356;2023-11-21T00:02:45;98510.44;;;-10.49;70.86
58239;BME280;44037;55.638;37.356;2023-11-21T00:05:13;98499.41;;;-10.72;71.19
58239;BME280;44037;55.638;37.356;2023-11-21T00:07:43;98508.09;;;-10.90;71.26
58239;BME280;44037;55.638;37.356;2023-11-21T00:10:11;98503.91;;;-10.93;71.77
58239;BME280;44037;55.638;37.356;2023-11-21T00:12:40;98515.63;;;-11.03;71.74
58239;BME280;44037;55.638;37.356;2023-11-21T00:15:10;98498.19;;;-11.00;72.00
58239;BME280;44037;55.638;37.356;2023-11-21T00:17:39;98504.97;;;-10.97;71.77
58239;BME280;44037;55.638;37.356;2023-11-21T00:20:09;98505.06;;;-10.81;71.58
58239;BME280;44037;55.638;37.356;2023-11-21T00:22:39;98489.66;;;-10.84;71.47
58239;BME280;44037;55.638;37.356;2023-11-21T00:25:08;98499.00;;;-10.63;71.48
58239;BME280;44037;55.638;37.356;2023-11-21T00:27:36;98497.91;;;-10.58;71.09
58239;BME280;44037;55.638;37.356;2023-11-21T00:30:05;98504.34;;;-10.48;70.84
58239;BME280;44037;55.638;37.356;2023-11-21T00:32:35;98500.50;;;-10.58;70.30
58239;BME280;44037;55.638;37.356;2023-11-21T00:35:05;98496.53;;;-10.66;70.75
58239;BME280;44037;55.638;37.356;2023-11-21T00:37:33;98495.47;;;-10.62;70.44
58239;BME280;44037;55.638;37.356;2023-11-21T00:40:01;98504.78;;;-10.75;70.35
58239;BME280;44037;55.638;37.356;2023-11-21T00:42:31;98482.31;;;-10.76;70.39
58239;BME280;44037;55.638;37.356;2023-11-21T00:45:00;98482.56;;;-10.81;69.77
58239;BME280;44037;55.638;37.356;2023-11-21T00:47:31;98495.22;;;-10.92;70.29
58239;BME280;44037;55.638;37.356;2023-11-21T00:49:59;98484.00;;;-10.75;70.43
58239;BME280;44037;55.638;37.356;2023-11-21T00:52:28;98493.47;;;-10.56;70.08
58239;BME280;44037;55.638;37.356;2023-11-21T00:54:56;98489.66;;;-10.49;69.61
58239;BME280;44037;55.638;37.356;2023-11-21T00:57:26;98479.22;;;-10.48;69.86
58239;BME280;44037;55.638;37.356;2023-11-21T00:59:54;98501.28;;;-10.39;69.29
58239;BME280;44037;55.638;37.356;2023-11-21T01:02:22;98496.38;;;-10.45;69.38
58239;BME280;44037;55.638;37.356;2023-11-21T01:04:50;98491.75;;;-10.56;69.39
58239;BME280;44037;55.638;37.356;2023-11-21T01:07:17;98486.75;;;-10.61;69.51
58239;BME280;44037;55.638;37.356;2023-11-21T01:09:48;98495.31;;;-10.58;69.35
58239;BME280;44037;55.638;37.356;2023-11-21T01:12:15;98485.31;;;-10.66;69.54
58239;BME280;44037;55.638;37.356;2023-11-21T01:14:43;98489.03;;;-10.72;69.99
58239;BME280;44037;55.638;37.356;2023-11-21T01:17:11;98495.16;;;-10.55;69.33
58239;BME280;44037;55.638;37.356;2023-11-21T01:19:39;98485.69;;;-10.74;69.72
58239;BME280;44037;55.638;37.356;2023-11-21T01:22:07;98478.75;;;-10.73;69.87
58239;BME280;44037;55.638;37.356;2023-11-21T01:24:35;98489.03;;;-10.72;69.78
58239;BME280;44037;55.638;37.356;2023-11-21T01:27:05;98489.50;;;-10.81;70.22
58239;BME280;44037;55.638;37.356;2023-11-21T01:29:33;98495.84;;;-10.87;70.11
58239;BME280;44037;55.638;37.356;2023-11-21T01:32:02;98489.72;;;-10.68;70.41
58239;BME280;44037;55.638;37.356;2023-11-21T01:34:31;98488.22;;;-10.72;69.76
58239;BME280;44037;55.638;37.356;2023-11-21T01:36:58;98502.09;;;-10.73;69.72
58239;BME280;44037;55.638;37.356;2023-11-21T01:39:28;98500.56;;;-10.78;69.63
58239;BME280;44037;55.638;37.356;2023-11-21T01:41:56;98502.13;;;-10.93;69.94
58239;BME280;44037;55.638;37.356;2023-11-21T01:44:26;98514.63;;;-11.01;69.97
58239;BME280;44037;55.638;37.356;2023-11-21T01:46:53;98498.25;;;-11.01;70.16
58239;BME280;44037;55.638;37.356;2023-11-21T01:49:24;98493.53;;;-10.93;70.22
58239;BME280;44037;55.638;37.356;2023-11-21T01:51:52;98513.38;;;-10.92;70.00
58239;BME280;44037;55.638;37.356;2023-11-21T01:54:20;98508.69;;;-11.03;70.10
58239;BME280;44037;55.638;37.356;2023-11-21T01:56:48;98486.44;;;-10.89;69.60
58239;BME280;44037;55.638;37.356;2023-11-21T01:59:19;98482.94;;;-10.88;69.99
58239;BME280;44037;55.638;37.356;2023-11-21T02:01:49;98500.13;;;-10.86;69.42
58239;BME280;44037;55.638;37.356;2023-11-21T02:04:18;98485.84;;;-10.60;69.11
58239;BME280;44037;55.638;37.356;2023-11-21T02:06:47;98493.63;;;-10.77;68.87
58239;BME280;44037;55.638;37.356;2023-11-21T02:09:16;98503.97;;;-10.95;69.12
58239;BME280;44037;55.638;37.356;2023-11-21T02:11:44;98528.13;;;-11.12;69.07
58239;BME280;44037;55.638;37.356;2023-11-21T02:14:12;98503.81;;;-11.28;69.62
58239;BME280;44037;55.638;37.356;2023-11-21T02:16:40;98510.09;;;-11.34;69.96
58239;BME280;44037;55.638;37.356;2023-11-21T02:19:10;98502.50;;;-11.37;70.21
58239;BME280;44037;55.638;37.356;2023-11-21T02:21:41;98495.88;;;-11.25;70.17
58239;BME280;44037;55.638;37.356;2023-11-21T02:24:13;98495.09;;;-11.08;69.77
58239;BME280;44037;55.638;37.356;2023-11-21T02:26:40;98500.59;;;-10.97;69.25
58239;BME280;44037;55.638;37.356;2023-11-21T02:29:08;98494.81;;;-11.02;69.35
58239;BME280;44037;55.638;37.356;2023-11-21T02:31:38;98509.03;;;-11.11;68.69
58239;BME280;44037;55.638;37.356;2023-11-21T02:34:14;98501.06;;;-11.06;68.65
58239;BME280;44037;55.638;37.356;2023-11-21T02:36:42;98518.22;;;-11.03;68.04
58239;BME280;44037;55.638;37.356;2023-11-21T02:39:10;98511.88;;;-11.34;68.42
58239;BME280;44037;55.638;37.356;2023-11-21T02:41:39;98504.72;;;-11.29;68.61
58239;BME280;44037;55.638;37.356;2023-11-21T02:44:07;98505.69;;;-11.13;68.24
58239;BME280;44037;55.638;37.356;2023-11-21T02:46:35;98514.34;;;-10.95;67.74
58239;BME280;44037;55.638;37.356;2023-11-21T02:49:06;98500.59;;;-10.97;67.01
58239;BME280;44037;55.638;37.356;2023-11-21T02:51:33;98520.13;;;-11.07;67.07
58239;BME280;44037;55.638;37.356;2023-11-21T02:54:01;98521.63;;;-11.03;66.96
58239;BME280;44037;55.638;37.356;2023-11-21T02:56:32;98527.53;;;-11.18;66.98
58239;BME280;44037;55.638;37.356;2023-11-21T02:59:01;98513.69;;;-11.17;67.32
58239;BME280;44037;55.638;37.356;2023-11-21T03:01:29;98529.84;;;-11.12;66.74
58239;BME280;44037;55.638;37.356;2023-11-21T03:03:57;98529.31;;;-11.19;66.87
58239;BME280;44037;55.638;37.356;2023-11-21T03:06:25;98513.91;;;-11.22;67.08
58239;BME280;44037;55.638;37.356;2023-11-21T03:08:53;98528.13;;;-11.31;67.34
58239;BME280;44037;55.638;37.356;2023-11-21T03:11:20;98537.34;;;-11.44;67.16
58239;BME280;44037;55.638;37.356;2023-11-21T03:13:48;98547.50;;;-11.59;67.56
58239;BME280;44037;55.638;37.356;2023-11-21T03:16:18;98563.56;;;-11.50;67.83
58239;BME280;44037;55.638;37.356;2023-11-21T03:18:46;98531.25;;;-11.62;68.18
58239;BME280;44037;55.638;37.356;2023-11-21T03:21:14;98535.41;;;-11.39;67.94
58239;BME280;44037;55.638;37.356;2023-11-21T03:23:42;98532.59;;;-11.34;67.91
58239;BME280;44037;55.638;37.356;2023-11-21T03:26:12;98530.81;;;-11.32;67.82
58239;BME280;44037;55.638;37.356;2023-11-21T03:28:40;98518.22;;;-11.22;67.72
58239;BME280;44037;55.638;37.356;2023-11-21T03:31:08;98535.84;;;-11.29;67.41
58239;BME280;44037;55.638;37.356;2023-11-21T03:33:38;98546.13;;;-11.28;68.02
58239;BME280;44037;55.638;37.356;2023-11-21T03:36:07;98552.72;;;-11.39;68.12
58239;BME280;44037;55.638;37.356;2023-11-21T03:38:37;98536.53;;;-11.26;68.80
58239;BME280;44037;55.638;37.356;2023-11-21T03:41:05;98542.28;;;-11.19;68.22
58239;BME280;44037;55.638;37.356;2023-11-21T03:43:34;98537.91;;;-11.18;68.57
58239;BME280;44037;55.638;37.356;2023-11-21T03:46:01;98545.78;;;-11.20;68.25
58239;BME280;44037;55.638;37.356;2023-11-21T03:48:29;98539.56;;;-11.35;68.89
58239;BME280;44037;55.638;37.356;2023-11-21T03:51:00;98554.59;;;-11.43;69.16
58239;BME280;44037;55.638;37.356;2023-11-21T03:53:28;98549.22;;;-11.38;69.45
58239;BME280;44037;55.638;37.356;2023-11-21T03:55:57;98545.06;;;-11.23;69.29
58239;BME280;44037;55.638;37.356;2023-11-21T03:58:24;98549.69;;;-11.30;69.45
58239;BME280;44037;55.638;37.356;2023-11-21T04:00:52;98549.22;;;-11.19;69.45
58239;BME280;44037;55.638;37.356;2023-11-21T04:03:20;98539.06;;;-11.24;69.70
58239;BME280;44037;55.638;37.356;2023-11-21T04:05:48;98536.66;;;-11.10;69.25
58239;BME280;44037;55.638;37.356;2023-11-21T04:08:17;98549.06;;;-10.97;69.12
58239;BME280;44037;55.638;37.356;2023-11-21T04:10:45;98546.47;;;-10.97;69.17
58239;BME280;44037;55.638;37.356;2023-11-21T04:13:12;98550.31;;;-11.06;69.57
58239;BME280;44037;55.638;37.356;2023-11-21T04:15:40;98542.69;;;-11.09;69.99
58239;BME280;44037;55.638;37.356;2023-11-21T04:18:08;98532.41;;;-11.30;70.25
58239;BME280;44037;55.638;37.356;2023-11-21T04:20:36;98541.44;;;-11.19;70.30
58239;BME280;44037;55.638;37.356;2023-11-21T04:23:04;98538.50;;;-11.12;70.00
58239;BME280;44037;55.638;37.356;2023-11-21T04:25:33;98544.97;;;-11.03;69.72
58239;BME280;44037;55.638;37.356;2023-11-21T04:28:01;98541.34;;;-10.99;70.27
58239;BME280;44037;55.638;37.356;2023-11-21T04:30:29;98539.44;;;-10.95;69.59
58239;BME280;44037;55.638;37.356;2023-11-21T04:32:59;98528.38;;;-10.99;69.87
58239;BME280;44037;55.638;37.356;2023-11-21T04:35:26;98544.56;;;-10.94;69.54
58239;BME280;44037;55.638;37.356;2023-11-21T04:37:54;98566.78;;;-11.07;69.97
58239;BME280;44037;55.638;37.356;2023-11-21T04:40:23;98540.50;;;-11.18;70.10
58239;BME280;44037;55.638;37.356;2023-11-21T04:42:54;98554.59;;;-11.24;70.32
58239;BME280;44037;55.638;37.356;2023-11-21T04:45:23;98565.47;;;-11.35;70.53
58239;BME280;44037;55.638;37.356;2023-11-21T04:47:51;98570.69;;;-11.36;70.87
58239;BME280;44037;55.638;37.356;2023-11-21T04:50:19;98579.88;;;-11.48;71.11
58239;BME280;44037;55.638;37.356;2023-11-21T04:52:47;98568.25;;;-11.39;71.07
58239;BME280;44037;55.638;37.356;2023-11-21T04:55:14;98579.69;;;-11.24;70.90
58239;BME280;44037;55.638;37.356;2023-11-21T04:57:42;98562.03;;;-11.16;70.53
58239;BME280;44037;55.638;37.356;2023-11-21T05:00:12;98592.94;;;-11.31;70.44
58239;BME280;44037;55.638;37.356;2023-11-21T05:02:42;98584.81;;;-11.23;70.33
58239;BME280;44037;55.638;37.356;2023-11-21T05:05:10;98580.25;;;-11.37;70.59
58239;BME280;44037;55.638;37.356;2023-11-21T05:07:39;98596.34;;;-11.30;70.89
58239;BME280;44037;55.638;37.356;2023-11-21T05:10:08;98592.22;;;-11.15;70.48
58239;BME280;44037;55.638;37.356;2023-11-21T05:12:38;98598.31;;;-11.35;70.44
58239;BME280;44037;55.638;37.356;2023-11-21T05:15:07;98599.91;;;-11.33;71.08
58239;BME280;44037;55.638;37.356;2023-11-21T05:17:37;98596.38;;;-11.11;70.64
58239;BME280;44037;55.638;37.356;2023-11-21T05:20:08;98610.22;;;-11.12;69.78
58239;BME280;44037;55.638;37.356;2023-11-21T05:22:37;98598.88;;;-11.29;70.36
58239;BME280;44037;55.638;37.356;2023-11-21T05:25:05;98589.34;;;-11.47;71.01
58239;BME280;44037;55.638;37.356;2023-11-21T05:27:34;98587.66;;;-11.48;71.05
58239;BME280;44037;55.638;37.356;2023-11-21T05:30:02;98583.19;;;-11.26;70.75
58239;BME280;44037;55.638;37.356;2023-11-21T05:32:32;98583.03;;;-11.22;70.10
58239;BME280;44037;55.638;37.356;2023-11-21T05:35:02;98591.03;;;-11.27;69.95
58239;BME280;44037;55.638;37.356;2023-11-21T05:37:30;98583.59;;;-11.16;69.94
58239;BME280;44037;55.638;37.356;2023-11-21T05:39:58;98580.69;;;-11.27;70.00
58239;BME280;44037;55.638;37.356;2023-11-21T05:42:31;98570.72;;;-11.17;70.23
58239;BME280;44037;55.638;37.356;2023-11-21T05:44:58;98576.81;;;-11.18;69.85
58239;BME280;44037;55.638;37.356;2023-11-21T05:47:36;98573.66;;;-11.06;69.81
58239;BME280;44037;55.638;37.356;2023-11-21T05:50:08;98588.84;;;-11.17;69.84
58239;BME280;44037;55.638;37.356;2023-11-21T05:52:39;98594.03;;;-11.36;70.27
58239;BME280;44037;55.638;37.356;2023-11-21T05:55:08;98583.81;;;-11.20;70.03
58239;BME280;44037;55.638;37.356;2023-11-21T05:57:36;98604.41;;;-11.36;70.30
58239;BME280;44037;55.638;37.356;2023-11-21T06:00:07;98593.47;;;-11.43;70.71
58239;BME280;44037;55.638;37.356;2023-11-21T06:02:39;98606.69;;;-11.49;71.15
58239;BME280;44037;55.638;37.356;2023-11-21T06:05:09;98609.66;;;-11.38;71.10
58239;BME280;44037;55.638;37.356;2023-11-21T06:07:37;98593.97;;;-11.35;70.86
58239;BME280;44037;55.638;37.356;2023-11-21T06:10:07;98594.47;;;-11.27;70.46
58239;BME280;44037;55.638;37.356;2023-11-21T06:12:37;98613.84;;;-11.35;70.77
58239;BME280;44037;55.638;37.356;2023-11-21T06:15:07;98612.13;;;-11.35;70.88
58239;BME280;44037;55.638;37.356;2023-11-21T06:17:35;98627.56;;;-11.13;70.52
58239;BME280;44037;55.638;37.356;2023-11-21T06:20:04;98644.47;;;-11.44;70.88
58239;BME280;44037;55.638;37.356;2023-11-21T06:22:37;98621.31;;;-11.48;71.42
58239;BME280;44037;55.638;37.356;2023-11-21T06:25:06;98610.44;;;-11.36;71.32
58239;BME280;44037;55.638;37.356;2023-11-21T06:27:37;98610.78;;;-11.44;71.61
58239;BME280;44037;55.638;37.356;2023-11-21T06:30:07;98616.66;;;-11.21;71.38
58239;BME280;44037;55.638;37.356;2023-11-21T06:32:35;98610.16;;;-11.30;70.97
58239;BME280;44037;55.638;37.356;2023-11-21T06:35:04;98625.19;;;-11.38;71.36
58239;BME280;44037;55.638;37.356;2023-11-21T06:37:32;98619.91;;;-11.35;71.28
58239;BME280;44037;55.638;37.356;2023-11-21T06:40:02;98612.41;;;-11.03;71.20
58239;BME280;44037;55.638;37.356;2023-11-21T06:42:32;98613.72;;;-11.13;70.79
58239;BME280;44037;55.638;37.356;2023-11-21T06:45:00;98618.09;;;-10.95;70.41
58239;BME280;44037;55.638;37.356;2023-11-21T06:47:34;98624.88;;;-11.11;70.50
58239;BME280;44037;55.638;37.356;2023-11-21T06:50:02;98621.03;;;-11.21;70.54
58239;BME280;44037;55.638;37.356;2023-11-21T06:52:31;98619.81;;;-11.33;70.88
58239;BME280;44037;55.638;37.356;2023-11-21T06:54:58;98623.53;;;-11.20;70.94
58239;BME280;44037;55.638;37.356;2023-11-21T06:57:27;98629.00;;;-11.07;70.43
58239;BME280;44037;55.638;37.356;2023-11-21T06:59:55;98623.13;;;-11.11;69.98
58239;BME280;44037;55.638;37.356;2023-11-21T07:02:23;98625.00;;;-10.95;69.96
58239;BME280;44037;55.638;37.356;2023-11-21T07:04:51;98616.06;;;-10.88;69.40
58239;BME280;44037;55.638;37.356;2023-11-21T07:07:19;98636.03;;;-10.90;69.64
58239;BME280;44037;55.638;37.356;2023-11-21T07:09:47;98624.00;;;-10.91;69.80
58239;BME280;44037;55.638;37.356;2023-11-21T07:12:15;98628.75;;;-10.82;70.05
58239;BME280;44037;55.638;37.356;2023-11-21T07:14:44;98621.16;;;-10.67;69.93
58239;BME280;44037;55.638;37.356;2023-11-21T07:17:12;98631.84;;;-10.37;69.86
58239;BME280;44037;55.638;37.356;2023-11-21T07:19:40;98633.41;;;-10.71;69.72
58239;BME280;44037;55.638;37.356;2023-11-21T07:22:08;98635.16;;;-10.52;69.47
58239;BME280;44037;55.638;37.356;2023-11-21T07:24:36;98627.84;;;-10.44;69.65
58239;BME280;44037;55.638;37.356;2023-11-21T07:27:04;98627.88;;;-10.63;69.47
58239;BME280;44037;55.638;37.356;2023-11-21T07:29:32;98623.84;;;-10.51;69.07
58239;BME280;44037;55.638;37.356;2023-11-21T07:32:02;98637.56;;;-10.67;69.04
58239;BME280;44037;55.638;37.356;2023-11-21T07:34:29;98625.72;;;-10.72;69.90
58239;BME280;44037;55.638;37.356;2023-11-21T07:36:57;98626.44;;;-10.51;69.81
58239;BME280;44037;55.638;37.356;2023-11-21T07:39:25;98629.91;;;-10.33;70.01
58239;BME280;44037;55.638;37.356;2023-11-21T07:41:53;98631.94;;;-10.03;69.34
58239;BME280;44037;55.638;37.356;2023-11-21T07:44:20;98644.63;;;-9.97;68.23
58239;BME280;44037;55.638;37.356;2023-11-21T07:46:48;98636.06;;;-10.17;68.21
58239;BME280;44037;55.638;37.356;2023-11-21T07:49:18;98650.41;;;-10.27;68.46
58239;BME280;44037;55.638;37.356;2023-11-21T07:51:47;98633.31;;;-10.50;69.32
58239;BME280;44037;55.638;37.356;2023-11-21T07:54:15;98629.91;;;-10.33;68.96
58239;BME280;44037;55.638;37.356;2023-11-21T07:56:43;98633.13;;;-10.46;69.64
58239;BME280;44037;55.638;37.356;2023-11-21T07:59:11;98624.22;;;-10.22;70.42
58239;BME280;44037;55.638;37.356;2023-11-21T08:01:40;98632.00;;;-9.87;70.24
58239;BME280;44037;55.638;37.356;2023-11-21T08:04:09;98627.28;;;-9.97;69.41
58239;BME280;44037;55.638;37.356;2023-11-21T08:06:39;98636.63;;;-9.59;69.44
58239;BME280;44037;55.638;37.356;2023-11-21T08:09:07;98626.50;;;-9.81;68.96
58239;BME280;44037;55.638;37.356;2023-11-21T08:11:36;98628.19;;;-9.98;68.86
58239;BME280;44037;55.638;37.356;2023-11-21T08:14:05;98629.69;;;-9.76;69.04
58239;BME280;44037;55.638;37.356;2023-11-21T08:16:32;98634.91;;;-9.76;68.67
58239;BME280;44037;55.638;37.356;2023-11-21T08:19:00;98624.81;;;-10.00;68.88
58239;BME280;44037;55.638;37.356;2023-11-21T08:21:29;98626.50;;;-9.81;69.02
58239;BME280;44037;55.638;37.356;2023-11-21T08:23:59;98635.66;;;-9.91;68.98
58239;BME280;44037;55.638;37.356;2023-11-21T08:26:26;98625.53;;;-9.96;69.43
58239;BME280;44037;55.638;37.356;2023-11-21T08:28:54;98617.78;;;-10.15;69.51
58239;BME280;44037;55.638;37.356;2023-11-21T08:31:25;98613.03;;;-9.89;69.74
58239;BME280;44037;55.638;37.356;2023-11-21T08:33:53;98616.47;;;-9.71;68.98
58239;BME280;44037;55.638;37.356;2023-11-21T08:36:22;98619.38;;;-9.95;68.39
58239;BME280;44037;55.638;37.356;2023-11-21T08:38:50;98618.09;;;-9.86;69.01
58239;BME280;44037;55.638;37.356;2023-11-21T08:41:20;98620.22;;;-9.95;68.87
58239;BME280;44037;55.638;37.356;2023-11-21T08:43:50;98618.56;;;-9.96;68.70
58239;BME280;44037;55.638;37.356;2023-11-21T08:46:17;98615.88;;;-10.29;68.97
58239;BME280;44037;55.638;37.356;2023-11-21T08:48:45;98603.91;;;-9.97;69.65
58239;BME280;44037;55.638;37.356;2023-11-21T08:51:13;98614.53;;;-9.68;68.27
58239;BME280;44037;55.638;37.356;2023-11-21T08:53:42;98625.75;;;-10.01;68.47
58239;BME280;44037;55.638;37.356;2023-11-21T08:56:12;98617.25;;;-10.22;69.24
58239;BME280;44037;55.638;37.356;2023-11-21T08:58:41;98611.59;;;-10.13;69.27
58239;BME280;44037;55.638;37.356;2023-11-21T09:01:09;98610.44;;;-9.89;68.55
58239;BME280;44037;55.638;37.356;2023-11-21T09:03:38;98620.06;;;-9.91;68.07
58239;BME280;44037;55.638;37.356;2023-11-21T09:06:07;98636.59;;;-10.28;68.24
58239;BME280;44037;55.638;37.356;2023-11-21T09:08:36;98626.56;;;-10.18;69.13
58239;BME280;44037;55.638;37.356;2023-11-21T09:11:04;98626.19;;;-9.93;68.84
58239;BME280;44037;55.638;37.356;2023-11-21T09:13:32;98622.03;;;-9.79;68.25
58239;BME280;44037;55.638;37.356;2023-11-21T09:16:01;98625.84;;;-9.69;68.04
58239;BME280;44037;55.638;37.356;2023-11-21T09:18:29;98636.72;;;-9.61;68.17
58239;BME280;44037;55.638;37.356;2023-11-21T09:20:57;98633.34;;;-9.80;67.83
58239;BME280;44037;55.638;37.356;2023-11-21T09:23:24;98631.66;;;-9.64;67.84
58239;BME280;44037;55.638;37.356;2023-11-21T09:25:52;98644.13;;;-9.70;67.03
58239;BME280;44037;55.638;37.356;2023-11-21T09:28:23;98650.00;;;-9.84;67.23
58239;BME280;44037;55.638;37.356;2023-11-21T09:30:51;98649.34;;;-10.05;68.01
58239;BME280;44037;55.638;37.356;2023-11-21T09:33:20;98648.25;;;-10.36;68.43
58239;BME280;44037;55.638;37.356;2023-11-21T09:35:49;98652.91;;;-10.25;68.34
58239;BME280;44037;55.638;37.356;2023-11-21T09:38:17;98648.16;;;-10.35;68.69
58239;BME280;44037;55.638;37.356;2023-11-21T09:40:45;98629.69;;;-10.11;68.58
58239;BME280;44037;55.638;37.356;2023-11-21T09:43:16;98648.19;;;-10.00;67.92
58239;BME280;44037;55.638;37.356;2023-11-21T09:45:45;98636.41;;;-9.89;67.38
58239;BME280;44037;55.638;37.356;2023-11-21T09:48:14;98644.94;;;-9.70;67.51
58239;BME280;44037;55.638;37.356;2023-11-21T09:50:47;98650.16;;;-9.70;67.39
58239;BME280;44037;55.638;37.356;2023-11-21T09:53:18;98637.94;;;-9.85;67.07
58239;BME280;44037;55.638;37.356;2023-11-21T09:55:49;98647.28;;;-9.81;67.29
58239;BME280;44037;55.638;37.356;2023-11-21T09:58:19;98649.09;;;-9.83;67.75
58239;BME280;44037;55.638;37.356;2023-11-21T10:00:53;98657.81;;;-9.84;67.93
58239;BME280;44037;55.638;37.356;2023-11-21T10:03:21;98644.50;;;-9.61;67.26
58239;BME280;44037;55.638;37.356;2023-11-21T10:05:50;98658.63;;;-9.49;66.60
58239;BME280;44037;55.638;37.356;2023-11-21T10:08:20;98651.38;;;-9.60;66.66
58239;BME280;44037;55.638;37.356;2023-11-21T10:10:53;98668.22;;;-9.67;67.72
58239;BME280;44037;55.638;37.356;2023-11-21T10:13:21;98662.16;;;-9.67;67.72
58239;BME280;44037;55.638;37.356;2023-11-21T10:15:50;98663.19;;;-9.36;67.42
58239;BME280;44037;55.638;37.356;2023-11-21T10:18:19;98654.69;;;-9.22;66.97
58239;BME280;44037;55.638;37.356;2023-11-21T10:20:50;98658.06;;;-9.20;67.12
58239;BME280;44037;55.638;37.356;2023-11-21T10:23:19;98656.25;;;-9.53;67.40
58239;BME280;44037;55.638;37.356;2023-11-21T10:25:48;98665.75;;;-9.35;67.59
58239;BME280;44037;55.638;37.356;2023-11-21T10:28:16;98665.41;;;-9.29;68.03
58239;BME280;44037;55.638;37.356;2023-11-21T10:30:44;98668.34;;;-9.52;68.21
58239;BME280;44037;55.638;37.356;2023-11-21T10:33:12;98668.19;;;-9.84;67.95
58239;BME280;44037;55.638;37.356;2023-11-21T10:35:43;98672.03;;;-9.74;68.34
58239;BME280;44037;55.638;37.356;2023-11-21T10:38:18;98661.56;;;-9.90;68.19
58239;BME280;44037;55.638;37.356;2023-11-21T10:40:49;98655.69;;;-10.11;69.46
58239;BME280;44037;55.638;37.356;2023-11-21T10:43:17;98672.03;;;-10.09;69.03
58239;BME280;44037;55.638;37.356;2023-11-21T10:45:45;98655.88;;;-9.97;69.13
58239;BME280;44037;55.638;37.356;2023-11-21T10:48:13;98661.09;;;-9.98;68.01
58239;BME280;44037;55.638;37.356;2023-11-21T10:50:43;98662.84;;;-10.16;68.98
58239;BME280;44037;55.638;37.356;2023-11-21T10:53:11;98667.75;;;-10.10;68.42
58239;BME280;44037;55.638;37.356;2023-11-21T10:55:41;98664.06;;;-9.88;68.57
58239;BME280;44037;55.638;37.356;2023-11-21T10:58:11;98659.31;;;-9.80;67.71
58239;BME280;44037;55.638;37.356;2023-11-21T11:00:41;98663.75;;;-9.65;68.11
58239;BME280;44037;55.638;37.356;2023-11-21T11:03:09;98664.91;;;-9.53;68.62
58239;BME280;44037;55.638;37.356;2023-11-21T11:05:40;98672.72;;;-9.53;67.78
58239;BME280;44037;55.638;37.356;2023-11-21T11:08:11;98666.22;;;-9.62;68.15
58239;BME280;44037;55.638;37.356;2023-11-21T11:10:41;98663.16;;;-9.52;68.42
58239;BME280;44037;55.638;37.356;2023-11-21T11:13:09;98661.47;;;-9.53;68.09
58239;BME280;44037;55.638;37.356;2023-11-21T11:15:36;98674.56;;;-9.21;67.93
58239;BME280;44037;55.638;37.356;2023-11-21T11:18:05;98668.88;;;-9.46;66.39
58239;BME280;44037;55.638;37.356;2023-11-21T11:20:37;98670.88;;;-9.51;66.14
58239;BME280;44037;55.638;37.356;2023-11-21T11:23:19;98671.03;;;-9.54;66.60
58239;BME280;44037;55.638;37.356;2023-11-21T11:26:06;98676.53;;;-9.42;66.53
58239;BME280;44037;55.638;37.356;2023-11-21T11:28:41;98671.75;;;-9.34;65.37
58239;BME280;44037;55.638;37.356;2023-11-21T11:31:20;98681.50;;;-9.73;66.25
58239;BME280;44037;55.638;37.356;2023-11-21T11:33:56;98687.53;;;-9.72;65.92
58239;BME280;44037;55.638;37.356;2023-11-21T11:36:29;98682.34;;;-9.72;66.20
58239;BME280;44037;55.638;37.356;2023-11-21T11:38:59;98675.16;;;-9.67;65.90
58239;BME280;44037;55.638;37.356;2023-11-21T11:41:31;98678.31;;;-9.61;65.56
58239;BME280;44037;55.638;37.356;2023-11-21T11:44:00;98687.38;;;-9.34;65.20
58239;BME280;44037;55.638;37.356;2023-11-21T11:46:42;98681.56;;;-9.57;65.29
58239;BME280;44037;55.638;37.356;2023-11-21T11:49:23;98703.44;;;-9.44;64.94
58239;BME280;44037;55.638;37.356;2023-11-21T11:54:53;98699.16;;;-9.45;65.03
58239;BME280;44037;55.638;37.356;2023-11-21T11:57:25;98694.94;;;-9.65;64.95
58239;BME280;44037;55.638;37.356;2023-11-21T12:00:32;98706.56;;;-9.54;65.73
58239;BME280;44037;55.638;37.356;2023-11-21T12:03:06;98697.38;;;-9.44;65.42
58239;BME280;44037;55.638;37.356;2023-11-21T12:05:35;98718.88;;;-9.75;65.32
58239;BME280;44037;55.638;37.356;2023-11-21T12:08:07;98701.38;;;-10.07;66.83
58239;BME280;44037;55.638;37.356;2023-11-21T12:10:35;98697.19;;;-9.74;66.56
58239;BME280;44037;55.638;37.356;2023-11-21T12:13:07;98706.19;;;-9.64;65.87
58239;BME280;44037;55.638;37.356;2023-11-21T12:15:37;98721.41;;;-9.56;65.55
58239;BME280;44037;55.638;37.356;2023-11-21T12:18:05;98711.78;;;-9.72;64.86
58239;BME280;44037;55.638;37.356;2023-11-21T12:20:32;98722.16;;;-9.72;64.91
58239;BME280;44037;55.638;37.356;2023-11-21T12:23:05;98717.19;;;-9.77;64.50
58239;BME280;44037;55.638;37.356;2023-11-21T12:25:35;98716.69;;;-9.66;64.27
58239;BME280;44037;55.638;37.356;2023-11-21T12:28:04;98716.19;;;-9.74;64.10
58239;BME280;44037;55.638;37.356;2023-11-21T12:30:33;98714.47;;;-9.73;64.80
58239;BME280;44037;55.638;37.356;2023-11-21T12:33:02;98727.97;;;-10.02;64.66
58239;BME280;44037;55.638;37.356;2023-11-21T12:35:31;98719.47;;;-9.88;65.12
58239;BME280;44037;55.638;37.356;2023-11-21T12:38:01;98723.25;;;-9.58;64.44
58239;BME280;44037;55.638;37.356;2023-11-21T12:40:29;98726.22;;;-9.49;63.72
58239;BME280;44037;55.638;37.356;2023-11-21T12:42:58;98740.13;;;-9.85;64.30
58239;BME280;44037;55.638;37.356;2023-11-21T12:45:29;98730.03;;;-9.91;64.50
58239;BME280;44037;55.638;37.356;2023-11-21T12:47:59;98730.97;;;-9.74;64.28
58239;BME280;44037;55.638;37.356;2023-11-21T12:50:30;98732.28;;;-9.66;64.19
58239;BME280;44037;55.638;37.356;2023-11-21T12:53:02;98725.59;;;-9.71;63.68
58239;BME280;44037;55.638;37.356;2023-11-21T12:55:32;98737.34;;;-9.82;64.32